Terminal Aerodrome Forecast
Issued by NWS

Home | Current Version | Previous Version | Text Only | Print | Product List | Glossary On
Versions: 1 2 3 4 5 6 7 8 9 10 11 12 13 14 15 16 17 18 19 20
000
FTUS45 KBYZ 231720
TAFLVM
TAF
KLVM 231720Z 2318/2418 25011KT P6SM VCSH SCT045 OVC060
     FM240300 28008KT P6SM BKN150
     FM241200 23011G20KT P6SM FEW200=

USA.gov is the U.S. government's official web portal to all federal, state and local government web resources and services.